sensor_id;sensor_type;location;lat;lon;timestamp;P1;durP1;ratioP1;P2;durP2;ratioP2
77170;SDS011;66144;50.020;14.422;2023-03-01T00:01:20;32.58;;;16.63;;
77170;SDS011;66144;50.020;14.422;2023-03-01T00:03:47;30.75;;;16.05;;
77170;SDS011;66144;50.020;14.422;2023-03-01T00:06:12;33.15;;;16.92;;
77170;SDS011;66144;50.020;14.422;2023-03-01T00:08:38;31.85;;;17.23;;
77170;SDS011;66144;50.020;14.422;2023-03-01T00:13:29;25.27;;;15.60;;
77170;SDS011;66144;50.020;14.422;2023-03-01T00:15:55;29.13;;;14.75;;
77170;SDS011;66144;50.020;14.422;2023-03-01T00:18:20;36.03;;;17.95;;
77170;SDS011;66144;50.020;14.422;2023-03-01T00:20:53;28.42;;;15.75;;
77170;SDS011;66144;50.020;14.422;2023-03-01T00:23:19;32.33;;;16.13;;
77170;SDS011;66144;50.020;14.422;2023-03-01T00:25:45;31.23;;;16.35;;
77170;SDS011;66144;50.020;14.422;2023-03-01T00:28:11;29.88;;;16.25;;
77170;SDS011;66144;50.020;14.422;2023-03-01T00:30:36;32.75;;;16.20;;
77170;SDS011;66144;50.020;14.422;2023-03-01T00:33:02;33.58;;;16.65;;
77170;SDS011;66144;50.020;14.422;2023-03-01T00:35:27;30.58;;;17.35;;
77170;SDS011;66144;50.020;14.422;2023-03-01T00:37:52;33.10;;;15.45;;
77170;SDS011;66144;50.020;14.422;2023-03-01T00:40:18;29.83;;;15.18;;
77170;SDS011;66144;50.020;14.422;2023-03-01T00:42:43;35.60;;;16.42;;
77170;SDS011;66144;50.020;14.422;2023-03-01T00:45:09;32.38;;;17.75;;
77170;SDS011;66144;50.020;14.422;2023-03-01T00:47:34;31.02;;;17.50;;
77170;SDS011;66144;50.020;14.422;2023-03-01T00:50:00;34.95;;;17.08;;
77170;SDS011;66144;50.020;14.422;2023-03-01T00:52:25;30.42;;;16.60;;
77170;SDS011;66144;50.020;14.422;2023-03-01T00:54:51;30.30;;;15.35;;
77170;SDS011;66144;50.020;14.422;2023-03-01T00:57:18;34.33;;;17.13;;
77170;SDS011;66144;50.020;14.422;2023-03-01T00:59:43;33.03;;;17.05;;
77170;SDS011;66144;50.020;14.422;2023-03-01T01:02:09;25.75;;;14.93;;
77170;SDS011;66144;50.020;14.422;2023-03-01T01:04:34;36.72;;;18.00;;
77170;SDS011;66144;50.020;14.422;2023-03-01T01:06:59;29.10;;;15.23;;
77170;SDS011;66144;50.020;14.422;2023-03-01T01:09:25;33.90;;;17.55;;
77170;SDS011;66144;50.020;14.422;2023-03-01T01:11:50;31.80;;;17.42;;
77170;SDS011;66144;50.020;14.422;2023-03-01T01:14:16;36.42;;;19.17;;
77170;SDS011;66144;50.020;14.422;2023-03-01T01:16:42;37.60;;;17.33;;
77170;SDS011;66144;50.020;14.422;2023-03-01T01:19:09;35.70;;;18.20;;
77170;SDS011;66144;50.020;14.422;2023-03-01T01:21:35;37.50;;;18.65;;
77170;SDS011;66144;50.020;14.422;2023-03-01T01:24:02;31.35;;;17.25;;
77170;SDS011;66144;50.020;14.422;2023-03-01T01:26:29;37.95;;;18.65;;
77170;SDS011;66144;50.020;14.422;2023-03-01T01:28:58;36.22;;;17.23;;
77170;SDS011;66144;50.020;14.422;2023-03-01T01:31:24;33.95;;;16.92;;
77170;SDS011;66144;50.020;14.422;2023-03-01T01:33:51;36.90;;;17.85;;
77170;SDS011;66144;50.020;14.422;2023-03-01T01:36:18;40.90;;;19.45;;
77170;SDS011;66144;50.020;14.422;2023-03-01T01:38:43;37.28;;;19.73;;
77170;SDS011;66144;50.020;14.422;2023-03-01T01:41:09;36.83;;;19.08;;
77170;SDS011;66144;50.020;14.422;2023-03-01T01:43:37;33.10;;;18.25;;
77170;SDS011;66144;50.020;14.422;2023-03-01T01:48:46;35.08;;;19.10;;
77170;SDS011;66144;50.020;14.422;2023-03-01T01:51:19;35.92;;;19.50;;
77170;SDS011;66144;50.020;14.422;2023-03-01T01:53:51;37.97;;;17.52;;
77170;SDS011;66144;50.020;14.422;2023-03-01T01:56:21;39.42;;;19.67;;
77170;SDS011;66144;50.020;14.422;2023-03-01T01:58:48;38.25;;;19.10;;
77170;SDS011;66144;50.020;14.422;2023-03-01T02:01:15;41.45;;;20.02;;
77170;SDS011;66144;50.020;14.422;2023-03-01T02:03:41;38.47;;;18.02;;
77170;SDS011;66144;50.020;14.422;2023-03-01T02:08:35;38.88;;;20.42;;
77170;SDS011;66144;50.020;14.422;2023-03-01T02:11:03;36.38;;;18.25;;
77170;SDS011;66144;50.020;14.422;2023-03-01T02:13:30;38.85;;;18.10;;
77170;SDS011;66144;50.020;14.422;2023-03-01T02:15:57;39.72;;;18.58;;
77170;SDS011;66144;50.020;14.422;2023-03-01T02:18:23;41.85;;;20.48;;
77170;SDS011;66144;50.020;14.422;2023-03-01T02:20:59;41.83;;;18.77;;
77170;SDS011;66144;50.020;14.422;2023-03-01T02:23:33;33.72;;;19.20;;
77170;SDS011;66144;50.020;14.422;2023-03-01T02:26:05;41.15;;;19.45;;
77170;SDS011;66144;50.020;14.422;2023-03-01T02:28:50;35.97;;;19.10;;
77170;SDS011;66144;50.020;14.422;2023-03-01T02:31:17;40.95;;;18.33;;
77170;SDS011;66144;50.020;14.422;2023-03-01T02:34:03;35.35;;;19.83;;
77170;SDS011;66144;50.020;14.422;2023-03-01T02:39:19;37.03;;;18.08;;
77170;SDS011;66144;50.020;14.422;2023-03-01T02:41:51;37.40;;;19.98;;
77170;SDS011;66144;50.020;14.422;2023-03-01T02:44:18;39.25;;;19.25;;
77170;SDS011;66144;50.020;14.422;2023-03-01T02:46:51;38.45;;;17.40;;
77170;SDS011;66144;50.020;14.422;2023-03-01T02:49:28;33.40;;;18.25;;
77170;SDS011;66144;50.020;14.422;2023-03-01T02:57:24;39.05;;;18.50;;
77170;SDS011;66144;50.020;14.422;2023-03-01T02:59:52;35.28;;;17.55;;
77170;SDS011;66144;50.020;14.422;2023-03-01T03:05:00;34.83;;;18.50;;
77170;SDS011;66144;50.020;14.422;2023-03-01T03:07:31;36.75;;;17.88;;
77170;SDS011;66144;50.020;14.422;2023-03-01T03:09:58;34.92;;;16.98;;
77170;SDS011;66144;50.020;14.422;2023-03-01T03:12:23;35.20;;;18.52;;
77170;SDS011;66144;50.020;14.422;2023-03-01T03:14:49;32.58;;;16.98;;
77170;SDS011;66144;50.020;14.422;2023-03-01T03:17:14;36.67;;;18.08;;
77170;SDS011;66144;50.020;14.422;2023-03-01T03:19:40;34.67;;;15.48;;
77170;SDS011;66144;50.020;14.422;2023-03-01T03:22:05;36.75;;;18.55;;
77170;SDS011;66144;50.020;14.422;2023-03-01T03:24:30;35.15;;;18.00;;
77170;SDS011;66144;50.020;14.422;2023-03-01T03:27:02;38.80;;;17.50;;
77170;SDS011;66144;50.020;14.422;2023-03-01T03:29:31;32.10;;;17.75;;
77170;SDS011;66144;50.020;14.422;2023-03-01T03:31:58;40.88;;;19.30;;
77170;SDS011;66144;50.020;14.422;2023-03-01T03:34:23;40.60;;;17.85;;
77170;SDS011;66144;50.020;14.422;2023-03-01T03:36:52;35.97;;;16.95;;
77170;SDS011;66144;50.020;14.422;2023-03-01T03:39:22;36.53;;;16.88;;
77170;SDS011;66144;50.020;14.422;2023-03-01T03:41:48;36.00;;;16.73;;
77170;SDS011;66144;50.020;14.422;2023-03-01T03:44:13;32.88;;;16.63;;
77170;SDS011;66144;50.020;14.422;2023-03-01T03:46:39;35.30;;;17.23;;
77170;SDS011;66144;50.020;14.422;2023-03-01T03:49:04;38.15;;;19.05;;
77170;SDS011;66144;50.020;14.422;2023-03-01T03:51:29;37.20;;;18.33;;
77170;SDS011;66144;50.020;14.422;2023-03-01T03:53:55;36.08;;;16.52;;
77170;SDS011;66144;50.020;14.422;2023-03-01T03:56:20;36.47;;;18.00;;
77170;SDS011;66144;50.020;14.422;2023-03-01T03:58:50;34.78;;;15.90;;
77170;SDS011;66144;50.020;14.422;2023-03-01T04:01:16;35.05;;;17.83;;
77170;SDS011;66144;50.020;14.422;2023-03-01T04:03:41;36.25;;;17.75;;
77170;SDS011;66144;50.020;14.422;2023-03-01T04:06:11;28.42;;;15.50;;
77170;SDS011;66144;50.020;14.422;2023-03-01T04:08:37;38.63;;;19.45;;
77170;SDS011;66144;50.020;14.422;2023-03-01T04:11:03;29.40;;;15.57;;
77170;SDS011;66144;50.020;14.422;2023-03-01T04:13:49;31.85;;;17.17;;
77170;SDS011;66144;50.020;14.422;2023-03-01T04:16:16;36.30;;;16.60;;
77170;SDS011;66144;50.020;14.422;2023-03-01T04:18:42;44.45;;;19.13;;
77170;SDS011;66144;50.020;14.422;2023-03-01T04:21:08;37.15;;;17.90;;
77170;SDS011;66144;50.020;14.422;2023-03-01T04:23:33;36.10;;;19.00;;
77170;SDS011;66144;50.020;14.422;2023-03-01T04:25:59;35.70;;;17.33;;
77170;SDS011;66144;50.020;14.422;2023-03-01T04:28:29;38.80;;;17.80;;
77170;SDS011;66144;50.020;14.422;2023-03-01T04:31:01;36.10;;;16.67;;
77170;SDS011;66144;50.020;14.422;2023-03-01T04:33:37;34.88;;;17.55;;
77170;SDS011;66144;50.020;14.422;2023-03-01T04:36:20;31.60;;;16.23;;
77170;SDS011;66144;50.020;14.422;2023-03-01T04:38:48;40.17;;;16.38;;
77170;SDS011;66144;50.020;14.422;2023-03-01T04:41:14;33.00;;;15.30;;
77170;SDS011;66144;50.020;14.422;2023-03-01T04:43:41;32.13;;;16.10;;
77170;SDS011;66144;50.020;14.422;2023-03-01T04:46:13;35.88;;;15.57;;
77170;SDS011;66144;50.020;14.422;2023-03-01T04:48:40;33.92;;;17.17;;
77170;SDS011;66144;50.020;14.422;2023-03-01T04:51:07;33.72;;;15.57;;
77170;SDS011;66144;50.020;14.422;2023-03-01T04:56:02;30.38;;;14.25;;
77170;SDS011;66144;50.020;14.422;2023-03-01T04:58:28;35.60;;;17.42;;
77170;SDS011;66144;50.020;14.422;2023-03-01T05:00:54;35.92;;;16.52;;
77170;SDS011;66144;50.020;14.422;2023-03-01T05:03:20;33.78;;;16.42;;
77170;SDS011;66144;50.020;14.422;2023-03-01T05:05:46;34.03;;;16.15;;
77170;SDS011;66144;50.020;14.422;2023-03-01T05:08:13;33.30;;;16.38;;
77170;SDS011;66144;50.020;14.422;2023-03-01T05:10:43;35.25;;;16.65;;
77170;SDS011;66144;50.020;14.422;2023-03-01T05:13:13;35.00;;;17.88;;
77170;SDS011;66144;50.020;14.422;2023-03-01T05:15:45;32.38;;;15.30;;
77170;SDS011;66144;50.020;14.422;2023-03-01T05:18:12;35.72;;;17.50;;
77170;SDS011;66144;50.020;14.422;2023-03-01T05:20:37;36.15;;;16.00;;
77170;SDS011;66144;50.020;14.422;2023-03-01T05:23:03;35.85;;;17.67;;
77170;SDS011;66144;50.020;14.422;2023-03-01T05:25:30;32.85;;;16.90;;
77170;SDS011;66144;50.020;14.422;2023-03-01T05:27:58;33.28;;;16.38;;
77170;SDS011;66144;50.020;14.422;2023-03-01T05:30:29;34.00;;;14.73;;
77170;SDS011;66144;50.020;14.422;2023-03-01T05:32:55;32.90;;;17.02;;
77170;SDS011;66144;50.020;14.422;2023-03-01T05:35:20;33.97;;;16.90;;
77170;SDS011;66144;50.020;14.422;2023-03-01T05:37:47;28.75;;;15.52;;
77170;SDS011;66144;50.020;14.422;2023-03-01T05:40:17;33.35;;;16.85;;
77170;SDS011;66144;50.020;14.422;2023-03-01T05:42:48;37.63;;;17.63;;
77170;SDS011;66144;50.020;14.422;2023-03-01T05:45:15;36.45;;;17.77;;
77170;SDS011;66144;50.020;14.422;2023-03-01T05:47:43;31.17;;;16.10;;
77170;SDS011;66144;50.020;14.422;2023-03-01T05:50:13;37.88;;;17.35;;
77170;SDS011;66144;50.020;14.422;2023-03-01T05:52:39;32.35;;;17.00;;
77170;SDS011;66144;50.020;14.422;2023-03-01T05:55:04;35.05;;;15.93;;
77170;SDS011;66144;50.020;14.422;2023-03-01T05:57:30;39.40;;;19.10;;
77170;SDS011;66144;50.020;14.422;2023-03-01T05:59:56;33.40;;;18.20;;
77170;SDS011;66144;50.020;14.422;2023-03-01T06:02:21;35.50;;;16.60;;
77170;SDS011;66144;50.020;14.422;2023-03-01T06:04:46;31.70;;;16.83;;
77170;SDS011;66144;50.020;14.422;2023-03-01T06:07:12;33.55;;;16.67;;
77170;SDS011;66144;50.020;14.422;2023-03-01T06:09:37;32.00;;;16.95;;
77170;SDS011;66144;50.020;14.422;2023-03-01T06:12:02;35.85;;;16.90;;
77170;SDS011;66144;50.020;14.422;2023-03-01T06:14:28;38.08;;;17.13;;
77170;SDS011;66144;50.020;14.422;2023-03-01T06:16:53;31.05;;;17.08;;
77170;SDS011;66144;50.020;14.422;2023-03-01T06:19:19;36.95;;;17.38;;
77170;SDS011;66144;50.020;14.422;2023-03-01T06:21:44;32.35;;;15.65;;
77170;SDS011;66144;50.020;14.422;2023-03-01T06:24:10;33.42;;;15.32;;
77170;SDS011;66144;50.020;14.422;2023-03-01T06:26:35;34.00;;;16.30;;
77170;SDS011;66144;50.020;14.422;2023-03-01T06:29:00;34.25;;;15.57;;
77170;SDS011;66144;50.020;14.422;2023-03-01T06:31:26;37.85;;;17.85;;
77170;SDS011;66144;50.020;14.422;2023-03-01T06:33:51;35.30;;;17.23;;
77170;SDS011;66144;50.020;14.422;2023-03-01T06:36:16;39.00;;;18.40;;
77170;SDS011;66144;50.020;14.422;2023-03-01T06:38:43;36.38;;;18.10;;
77170;SDS011;66144;50.020;14.422;2023-03-01T06:41:09;38.58;;;19.35;;
77170;SDS011;66144;50.020;14.422;2023-03-01T06:43:35;39.38;;;18.83;;
77170;SDS011;66144;50.020;14.422;2023-03-01T06:46:03;32.25;;;16.85;;
77170;SDS011;66144;50.020;14.422;2023-03-01T06:48:29;33.30;;;18.13;;
77170;SDS011;66144;50.020;14.422;2023-03-01T06:50:57;35.75;;;18.35;;
77170;SDS011;66144;50.020;14.422;2023-03-01T06:53:23;34.97;;;16.40;;
77170;SDS011;66144;50.020;14.422;2023-03-01T06:55:53;39.50;;;17.50;;
77170;SDS011;66144;50.020;14.422;2023-03-01T06:58:19;39.72;;;19.02;;
77170;SDS011;66144;50.020;14.422;2023-03-01T07:00:45;38.85;;;20.25;;
77170;SDS011;66144;50.020;14.422;2023-03-01T07:03:10;38.33;;;17.73;;
77170;SDS011;66144;50.020;14.422;2023-03-01T07:05:35;32.33;;;15.63;;
77170;SDS011;66144;50.020;14.422;2023-03-01T07:08:01;39.67;;;19.60;;
77170;SDS011;66144;50.020;14.422;2023-03-01T07:10:26;38.97;;;20.15;;
77170;SDS011;66144;50.020;14.422;2023-03-01T07:12:56;40.63;;;18.88;;
77170;SDS011;66144;50.020;14.422;2023-03-01T07:15:22;38.25;;;17.80;;
77170;SDS011;66144;50.020;14.422;2023-03-01T07:17:48;41.63;;;20.13;;
77170;SDS011;66144;50.020;14.422;2023-03-01T07:20:15;37.83;;;20.52;;
77170;SDS011;66144;50.020;14.422;2023-03-01T07:22:42;41.40;;;21.38;;
77170;SDS011;66144;50.020;14.422;2023-03-01T07:25:08;36.03;;;20.52;;
77170;SDS011;66144;50.020;14.422;2023-03-01T07:27:35;37.65;;;19.58;;
77170;SDS011;66144;50.020;14.422;2023-03-01T07:30:01;38.95;;;20.63;;
77170;SDS011;66144;50.020;14.422;2023-03-01T07:34:53;39.38;;;18.83;;
77170;SDS011;66144;50.020;14.422;2023-03-01T07:37:18;38.50;;;18.80;;
77170;SDS011;66144;50.020;14.422;2023-03-01T07:39:43;42.70;;;18.88;;
77170;SDS011;66144;50.020;14.422;2023-03-01T07:42:09;40.85;;;19.30;;
77170;SDS011;66144;50.020;14.422;2023-03-01T07:44:34;34.70;;;17.83;;
77170;SDS011;66144;50.020;14.422;2023-03-01T07:47:00;36.22;;;17.67;;
77170;SDS011;66144;50.020;14.422;2023-03-01T07:49:25;37.83;;;17.38;;
77170;SDS011;66144;50.020;14.422;2023-03-01T07:51:53;32.08;;;17.42;;
77170;SDS011;66144;50.020;14.422;2023-03-01T07:54:19;32.22;;;16.50;;
77170;SDS011;66144;50.020;14.422;2023-03-01T07:59:09;32.93;;;17.13;;
77170;SDS011;66144;50.020;14.422;2023-03-01T08:01:35;37.22;;;16.40;;
77170;SDS011;66144;50.020;14.422;2023-03-01T08:04:00;34.33;;;16.75;;
77170;SDS011;66144;50.020;14.422;2023-03-01T08:06:26;34.20;;;16.77;;
77170;SDS011;66144;50.020;14.422;2023-03-01T08:11:20;38.25;;;17.23;;
77170;SDS011;66144;50.020;14.422;2023-03-01T08:13:47;29.92;;;15.73;;
77170;SDS011;66144;50.020;14.422;2023-03-01T08:16:14;29.70;;;15.85;;
77170;SDS011;66144;50.020;14.422;2023-03-01T08:18:40;29.92;;;16.50;;
77170;SDS011;66144;50.020;14.422;2023-03-01T08:21:10;31.70;;;16.10;;
77170;SDS011;66144;50.020;14.422;2023-03-01T08:23:38;31.13;;;18.13;;
77170;SDS011;66144;50.020;14.422;2023-03-01T08:28:31;31.75;;;17.17;;
77170;SDS011;66144;50.020;14.422;2023-03-01T08:33:22;47.37;;;18.17;;
77170;SDS011;66144;50.020;14.422;2023-03-01T08:38:12;35.53;;;18.07;;
77170;SDS011;66144;50.020;14.422;2023-03-01T08:43:03;31.13;;;16.03;;
77170;SDS011;66144;50.020;14.422;2023-03-01T08:47:54;29.77;;;15.47;;
77170;SDS011;66144;50.020;14.422;2023-03-01T08:52:44;43.20;;;17.60;;
77170;SDS011;66144;50.020;14.422;2023-03-01T08:57:35;31.00;;;15.27;;
77170;SDS011;66144;50.020;14.422;2023-03-01T09:02:25;26.83;;;14.90;;
77170;SDS011;66144;50.020;14.422;2023-03-01T09:07:16;31.77;;;15.40;;
77170;SDS011;66144;50.020;14.422;2023-03-01T09:12:07;28.83;;;13.93;;
77170;SDS011;66144;50.020;14.422;2023-03-01T09:16:57;28.87;;;15.77;;
77170;SDS011;66144;50.020;14.422;2023-03-01T09:21:48;32.03;;;14.40;;
77170;SDS011;66144;50.020;14.422;2023-03-01T09:24:21;28.67;;;15.68;;
77170;SDS011;66144;50.020;14.422;2023-03-01T09:26:48;23.75;;;12.73;;
77170;SDS011;66144;50.020;14.422;2023-03-01T09:31:40;26.60;;;12.88;;
77170;SDS011;66144;50.020;14.422;2023-03-01T09:34:06;24.33;;;12.20;;
77170;SDS011;66144;50.020;14.422;2023-03-01T09:38:57;23.45;;;12.50;;
77170;SDS011;66144;50.020;14.422;2023-03-01T09:41:36;23.42;;;11.93;;
77170;SDS011;66144;50.020;14.422;2023-03-01T09:46:45;23.25;;;11.65;;
77170;SDS011;66144;50.020;14.422;2023-03-01T09:51:42;21.63;;;11.63;;
77170;SDS011;66144;50.020;14.422;2023-03-01T09:54:13;22.10;;;12.13;;
77170;SDS011;66144;50.020;14.422;2023-03-01T09:56:53;22.73;;;12.32;;
77170;SDS011;66144;50.020;14.422;2023-03-01T10:04:49;26.30;;;13.95;;
77170;SDS011;66144;50.020;14.422;2023-03-01T10:07:27;23.23;;;13.90;;
77170;SDS011;66144;50.020;14.422;2023-03-01T10:12:20;21.93;;;14.30;;
77170;SDS011;66144;50.020;14.422;2023-03-01T10:17:44;18.90;;;12.73;;
77170;SDS011;66144;50.020;14.422;2023-03-01T10:22:49;18.58;;;12.65;;
77170;SDS011;66144;50.020;14.422;2023-03-01T10:30:49;19.77;;;13.15;;
77170;SDS011;66144;50.020;14.422;2023-03-01T10:33:19;18.50;;;13.18;;
77170;SDS011;66144;50.020;14.422;2023-03-01T10:35:47;18.23;;;12.65;;
77170;SDS011;66144;50.020;14.422;2023-03-01T10:38:14;19.38;;;12.45;;
77170;SDS011;66144;50.020;14.422;2023-03-01T10:43:17;19.58;;;12.88;;
77170;SDS011;66144;50.020;14.422;2023-03-01T10:45:44;20.52;;;13.80;;
77170;SDS011;66144;50.020;14.422;2023-03-01T10:48:22;17.48;;;12.07;;
77170;SDS011;66144;50.020;14.422;2023-03-01T10:56:12;18.92;;;12.40;;
77170;SDS011;66144;50.020;14.422;2023-03-01T10:58:41;18.15;;;12.77;;
77170;SDS011;66144;50.020;14.422;2023-03-01T11:03:54;21.00;;;13.77;;
77170;SDS011;66144;50.020;14.422;2023-03-01T11:06:30;16.63;;;12.02;;
77170;SDS011;66144;50.020;14.422;2023-03-01T11:08:57;18.13;;;13.40;;
77170;SDS011;66144;50.020;14.422;2023-03-01T11:14:06;19.87;;;12.97;;
77170;SDS011;66144;50.020;14.422;2023-03-01T11:16:41;19.15;;;12.82;;
77170;SDS011;66144;50.020;14.422;2023-03-01T11:21:34;18.70;;;13.50;;
77170;SDS011;66144;50.020;14.422;2023-03-01T11:24:03;19.42;;;14.25;;
77170;SDS011;66144;50.020;14.422;2023-03-01T11:26:31;17.50;;;13.75;;
77170;SDS011;66144;50.020;14.422;2023-03-01T11:29:02;20.25;;;14.35;;
77170;SDS011;66144;50.020;14.422;2023-03-01T11:34:14;18.55;;;13.45;;
77170;SDS011;66144;50.020;14.422;2023-03-01T11:36:56;19.75;;;13.05;;
77170;SDS011;66144;50.020;14.422;2023-03-01T11:39:34;18.35;;;15.05;;
77170;SDS011;66144;50.020;14.422;2023-03-01T11:42:13;16.25;;;13.30;;
77170;SDS011;66144;50.020;14.422;2023-03-01T11:44:42;18.55;;;13.25;;
77170;SDS011;66144;50.020;14.422;2023-03-01T11:55:36;18.13;;;13.68;;
77170;SDS011;66144;50.020;14.422;2023-03-01T11:58:14;18.98;;;13.88;;
77170;SDS011;66144;50.020;14.422;2023-03-01T12:01:00;20.08;;;14.65;;
77170;SDS011;66144;50.020;14.422;2023-03-01T12:09:24;20.63;;;16.38;;
77170;SDS011;66144;50.020;14.422;2023-03-01T12:12:18;21.55;;;15.60;;
77170;SDS011;66144;50.020;14.422;2023-03-01T12:15:20;22.90;;;15.50;;
77170;SDS011;66144;50.020;14.422;2023-03-01T12:39:50;21.20;;;15.52;;
77170;SDS011;66144;50.020;14.422;2023-03-01T12:42:37;38.75;;;20.40;;
77170;SDS011;66144;50.020;14.422;2023-03-01T12:51:03;19.15;;;15.10;;
77170;SDS011;66144;50.020;14.422;2023-03-01T12:53:34;17.77;;;13.63;;
77170;SDS011;66144;50.020;14.422;2023-03-01T12:56:09;19.10;;;14.27;;
77170;SDS011;66144;50.020;14.422;2023-03-01T12:58:50;17.90;;;14.75;;
77170;SDS011;66144;50.020;14.422;2023-03-01T13:15:36;15.15;;;11.38;;
77170;SDS011;66144;50.020;14.422;2023-03-01T13:30:59;16.40;;;12.38;;
77170;SDS011;66144;50.020;14.422;2023-03-01T13:35:59;21.30;;;14.20;;
77170;SDS011;66144;50.020;14.422;2023-03-01T13:38:39;22.52;;;14.27;;
77170;SDS011;66144;50.020;14.422;2023-03-01T13:41:09;22.27;;;15.32;;
77170;SDS011;66144;50.020;14.422;2023-03-01T13:43:36;21.42;;;13.88;;
77170;SDS011;66144;50.020;14.422;2023-03-01T13:46:15;20.88;;;14.20;;
77170;SDS011;66144;50.020;14.422;2023-03-01T13:48:45;22.05;;;14.13;;
77170;SDS011;66144;50.020;14.422;2023-03-01T13:51:15;22.25;;;14.30;;
77170;SDS011;66144;50.020;14.422;2023-03-01T13:53:45;21.50;;;12.45;;
77170;SDS011;66144;50.020;14.422;2023-03-01T13:56:17;19.38;;;12.48;;
77170;SDS011;66144;50.020;14.422;2023-03-01T14:01:23;20.02;;;11.23;;
77170;SDS011;66144;50.020;14.422;2023-03-01T14:03:50;16.45;;;10.40;;
77170;SDS011;66144;50.020;14.422;2023-03-01T14:06:16;18.15;;;11.85;;
77170;SDS011;66144;50.020;14.422;2023-03-01T14:08:45;20.08;;;12.05;;
77170;SDS011;66144;50.020;14.422;2023-03-01T14:14:32;19.63;;;11.50;;
77170;SDS011;66144;50.020;14.422;2023-03-01T14:19:57;22.27;;;11.57;;
77170;SDS011;66144;50.020;14.422;2023-03-01T14:24:59;21.40;;;11.38;;
77170;SDS011;66144;50.020;14.422;2023-03-01T14:27:35;18.48;;;10.75;;
77170;SDS011;66144;50.020;14.422;2023-03-01T14:30:09;19.90;;;11.13;;
77170;SDS011;66144;50.020;14.422;2023-03-01T14:32:39;24.85;;;11.40;;
77170;SDS011;66144;50.020;14.422;2023-03-01T14:35:19;20.13;;;11.55;;
77170;SDS011;66144;50.020;14.422;2023-03-01T14:37:48;19.45;;;10.73;;
77170;SDS011;66144;50.020;14.422;2023-03-01T14:40:25;18.23;;;10.82;;
77170;SDS011;66144;50.020;14.422;2023-03-01T14:42:56;16.40;;;10.65;;
77170;SDS011;66144;50.020;14.422;2023-03-01T14:45:26;19.17;;;10.63;;
77170;SDS011;66144;50.020;14.422;2023-03-01T14:47:53;17.80;;;11.52;;
77170;SDS011;66144;50.020;14.422;2023-03-01T14:50:22;19.25;;;11.10;;
77170;SDS011;66144;50.020;14.422;2023-03-01T14:53:01;18.45;;;10.68;;
77170;SDS011;66144;50.020;14.422;2023-03-01T14:55:38;21.88;;;11.15;;
77170;SDS011;66144;50.020;14.422;2023-03-01T14:58:13;22.50;;;10.30;;
77170;SDS011;66144;50.020;14.422;2023-03-01T15:00:47;19.27;;;9.88;;
77170;SDS011;66144;50.020;14.422;2023-03-01T15:05:54;28.70;;;11.48;;
77170;SDS011;66144;50.020;14.422;2023-03-01T15:08:21;16.73;;;9.60;;
77170;SDS011;66144;50.020;14.422;2023-03-01T15:13:29;20.20;;;11.30;;
77170;SDS011;66144;50.020;14.422;2023-03-01T15:16:15;20.42;;;11.32;;
77170;SDS011;66144;50.020;14.422;2023-03-01T15:18:47;18.20;;;10.65;;
77170;SDS011;66144;50.020;14.422;2023-03-01T15:21:16;18.15;;;11.25;;
77170;SDS011;66144;50.020;14.422;2023-03-01T15:23:52;19.55;;;12.27;;
77170;SDS011;66144;50.020;14.422;2023-03-01T15:26:30;17.67;;;10.45;;
77170;SDS011;66144;50.020;14.422;2023-03-01T15:28:59;18.90;;;10.32;;
77170;SDS011;66144;50.020;14.422;2023-03-01T15:31:26;21.10;;;11.38;;
77170;SDS011;66144;50.020;14.422;2023-03-01T15:36:45;21.83;;;10.68;;
77170;SDS011;66144;50.020;14.422;2023-03-01T15:47:33;20.90;;;10.98;;
77170;SDS011;66144;50.020;14.422;2023-03-01T15:50:00;16.63;;;10.90;;
77170;SDS011;66144;50.020;14.422;2023-03-01T15:52:28;19.92;;;10.02;;
77170;SDS011;66144;50.020;14.422;2023-03-01T15:55:03;17.42;;;9.40;;
77170;SDS011;66144;50.020;14.422;2023-03-01T15:57:30;21.23;;;13.77;;
77170;SDS011;66144;50.020;14.422;2023-03-01T15:59:56;18.20;;;10.93;;
77170;SDS011;66144;50.020;14.422;2023-03-01T16:02:22;18.55;;;10.23;;
77170;SDS011;66144;50.020;14.422;2023-03-01T16:04:49;17.73;;;10.63;;
77170;SDS011;66144;50.020;14.422;2023-03-01T16:07:14;18.63;;;10.55;;
77170;SDS011;66144;50.020;14.422;2023-03-01T16:09:40;16.27;;;9.80;;
77170;SDS011;66144;50.020;14.422;2023-03-01T16:12:08;20.17;;;10.30;;
77170;SDS011;66144;50.020;14.422;2023-03-01T16:14:38;18.67;;;10.07;;
77170;SDS011;66144;50.020;14.422;2023-03-01T16:17:04;15.18;;;8.90;;
77170;SDS011;66144;50.020;14.422;2023-03-01T16:19:30;19.27;;;12.00;;
77170;SDS011;66144;50.020;14.422;2023-03-01T16:21:55;17.23;;;10.23;;
77170;SDS011;66144;50.020;14.422;2023-03-01T16:24:21;16.98;;;9.60;;
77170;SDS011;66144;50.020;14.422;2023-03-01T16:26:46;18.95;;;11.73;;
77170;SDS011;66144;50.020;14.422;2023-03-01T16:29:11;19.30;;;9.48;;
77170;SDS011;66144;50.020;14.422;2023-03-01T16:31:37;18.42;;;10.00;;
77170;SDS011;66144;50.020;14.422;2023-03-01T16:34:02;16.40;;;9.38;;
77170;SDS011;66144;50.020;14.422;2023-03-01T16:36:28;16.63;;;9.07;;
77170;SDS011;66144;50.020;14.422;2023-03-01T16:38:54;16.65;;;9.20;;
77170;SDS011;66144;50.020;14.422;2023-03-01T16:41:22;13.55;;;8.27;;
77170;SDS011;66144;50.020;14.422;2023-03-01T16:43:48;17.52;;;8.80;;
77170;SDS011;66144;50.020;14.422;2023-03-01T16:46:18;18.80;;;10.45;;
77170;SDS011;66144;50.020;14.422;2023-03-01T16:51:11;18.63;;;8.68;;
77170;SDS011;66144;50.020;14.422;2023-03-01T16:53:37;15.23;;;9.15;;
77170;SDS011;66144;50.020;14.422;2023-03-01T16:56:04;18.70;;;9.38;;
77170;SDS011;66144;50.020;14.422;2023-03-01T16:58:32;17.45;;;10.07;;
77170;SDS011;66144;50.020;14.422;2023-03-01T17:01:03;17.08;;;9.65;;
77170;SDS011;66144;50.020;14.422;2023-03-01T17:03:31;18.85;;;9.82;;
77170;SDS011;66144;50.020;14.422;2023-03-01T17:08:26;16.85;;;10.07;;
77170;SDS011;66144;50.020;14.422;2023-03-01T17:13:17;17.63;;;9.27;;
77170;SDS011;66144;50.020;14.422;2023-03-01T17:15:42;18.15;;;9.25;;
77170;SDS011;66144;50.020;14.422;2023-03-01T17:20:34;15.85;;;8.60;;
77170;SDS011;66144;50.020;14.422;2023-03-01T17:23:00;19.10;;;10.13;;
77170;SDS011;66144;50.020;14.422;2023-03-01T17:27:50;17.40;;;9.37;;
77170;SDS011;66144;50.020;14.422;2023-03-01T17:30:16;20.88;;;10.80;;
77170;SDS011;66144;50.020;14.422;2023-03-01T17:32:41;20.65;;;11.63;;
77170;SDS011;66144;50.020;14.422;2023-03-01T17:37:33;28.38;;;15.05;;
77170;SDS011;66144;50.020;14.422;2023-03-01T17:42:24;20.90;;;10.70;;
77170;SDS011;66144;50.020;14.422;2023-03-01T17:47:15;21.35;;;10.70;;
77170;SDS011;66144;50.020;14.422;2023-03-01T17:52:05;23.73;;;11.97;;
77170;SDS011;66144;50.020;14.422;2023-03-01T17:54:31;24.67;;;12.50;;
77170;SDS011;66144;50.020;14.422;2023-03-01T17:56:57;24.15;;;12.32;;
77170;SDS011;66144;50.020;14.422;2023-03-01T18:01:48;22.02;;;12.85;;
77170;SDS011;66144;50.020;14.422;2023-03-01T18:06:39;19.43;;;10.23;;